sensor_id;sensor_type;location;lat;lon;timestamp;temperature;humidity
42715;DHT22;28351;51.480;5.706;2023-11-19T00:02:19;12.90;99.90
42715;DHT22;28351;51.480;5.706;2023-11-19T00:04:44;12.90;99.90
42715;DHT22;28351;51.480;5.706;2023-11-19T00:07:10;12.90;99.90
42715;DHT22;28351;51.480;5.706;2023-11-19T00:09:37;12.90;99.90
42715;DHT22;28351;51.480;5.706;2023-11-19T00:12:04;13.00;99.90
42715;DHT22;28351;51.480;5.706;2023-11-19T00:14:30;13.00;99.90
42715;DHT22;28351;51.480;5.706;2023-11-19T00:16:56;13.00;99.90
42715;DHT22;28351;51.480;5.706;2023-11-19T00:19:22;13.00;99.90
42715;DHT22;28351;51.480;5.706;2023-11-19T00:21:47;13.00;99.90
42715;DHT22;28351;51.480;5.706;2023-11-19T00:24:13;13.00;99.90
42715;DHT22;28351;51.480;5.706;2023-11-19T00:26:41;13.00;99.90
42715;DHT22;28351;51.480;5.706;2023-11-19T00:29:07;13.00;99.90
42715;DHT22;28351;51.480;5.706;2023-11-19T00:31:33;13.10;99.90
42715;DHT22;28351;51.480;5.706;2023-11-19T00:33:59;13.10;99.90
42715;DHT22;28351;51.480;5.706;2023-11-19T00:36:24;13.10;99.90
42715;DHT22;28351;51.480;5.706;2023-11-19T00:38:51;13.10;99.90
42715;DHT22;28351;51.480;5.706;2023-11-19T00:41:18;13.10;99.90
42715;DHT22;28351;51.480;5.706;2023-11-19T00:43:43;13.10;99.90
42715;DHT22;28351;51.480;5.706;2023-11-19T00:46:09;13.00;99.90
42715;DHT22;28351;51.480;5.706;2023-11-19T00:48:36;13.00;99.90
42715;DHT22;28351;51.480;5.706;2023-11-19T00:51:02;13.10;99.90
42715;DHT22;28351;51.480;5.706;2023-11-19T00:53:29;13.10;99.90
42715;DHT22;28351;51.480;5.706;2023-11-19T00:55:55;13.10;99.90
42715;DHT22;28351;51.480;5.706;2023-11-19T00:58:20;13.10;99.90
42715;DHT22;28351;51.480;5.706;2023-11-19T01:00:46;13.10;99.90
42715;DHT22;28351;51.480;5.706;2023-11-19T01:03:12;13.10;99.90
42715;DHT22;28351;51.480;5.706;2023-11-19T01:05:38;13.10;99.90
42715;DHT22;28351;51.480;5.706;2023-11-19T01:08:04;13.10;99.90
42715;DHT22;28351;51.480;5.706;2023-11-19T01:10:31;13.10;99.90
42715;DHT22;28351;51.480;5.706;2023-11-19T01:12:56;13.10;99.90
42715;DHT22;28351;51.480;5.706;2023-11-19T01:15:22;13.10;99.90
42715;DHT22;28351;51.480;5.706;2023-11-19T01:17:48;13.20;99.90
42715;DHT22;28351;51.480;5.706;2023-11-19T01:20:14;13.10;99.90
42715;DHT22;28351;51.480;5.706;2023-11-19T01:22:40;13.10;99.90
42715;DHT22;28351;51.480;5.706;2023-11-19T01:25:06;13.10;99.90
42715;DHT22;28351;51.480;5.706;2023-11-19T01:27:32;13.10;99.90
42715;DHT22;28351;51.480;5.706;2023-11-19T01:30:00;13.20;99.90
42715;DHT22;28351;51.480;5.706;2023-11-19T01:32:29;13.20;99.90
42715;DHT22;28351;51.480;5.706;2023-11-19T01:34:54;13.10;99.90
42715;DHT22;28351;51.480;5.706;2023-11-19T01:37:20;13.10;99.90
42715;DHT22;28351;51.480;5.706;2023-11-19T01:39:46;13.10;99.90
42715;DHT22;28351;51.480;5.706;2023-11-19T01:42:11;13.00;99.90
42715;DHT22;28351;51.480;5.706;2023-11-19T01:44:37;13.00;99.90
42715;DHT22;28351;51.480;5.706;2023-11-19T01:47:03;13.00;99.90
42715;DHT22;28351;51.480;5.706;2023-11-19T01:49:31;12.90;99.90
42715;DHT22;28351;51.480;5.706;2023-11-19T01:51:57;13.00;99.90
42715;DHT22;28351;51.480;5.706;2023-11-19T01:54:23;13.00;99.90
42715;DHT22;28351;51.480;5.706;2023-11-19T01:56:49;13.00;99.90
42715;DHT22;28351;51.480;5.706;2023-11-19T01:59:15;13.00;99.90
42715;DHT22;28351;51.480;5.706;2023-11-19T02:01:43;13.00;99.90
42715;DHT22;28351;51.480;5.706;2023-11-19T02:04:14;13.00;99.90
42715;DHT22;28351;51.480;5.706;2023-11-19T02:06:43;13.00;99.90
42715;DHT22;28351;51.480;5.706;2023-11-19T02:09:17;13.00;99.90
42715;DHT22;28351;51.480;5.706;2023-11-19T02:12:07;13.00;99.90
42715;DHT22;28351;51.480;5.706;2023-11-19T02:14:32;13.00;99.90
42715;DHT22;28351;51.480;5.706;2023-11-19T02:17:28;13.00;99.90
42715;DHT22;28351;51.480;5.706;2023-11-19T02:19:54;13.10;99.90
42715;DHT22;28351;51.480;5.706;2023-11-19T02:22:19;13.00;99.90
42715;DHT22;28351;51.480;5.706;2023-11-19T02:24:47;12.90;99.90
42715;DHT22;28351;51.480;5.706;2023-11-19T02:30:07;12.80;99.90
42715;DHT22;28351;51.480;5.706;2023-11-19T02:32:34;12.80;99.90
42715;DHT22;28351;51.480;5.706;2023-11-19T02:35:01;12.70;99.90
42715;DHT22;28351;51.480;5.706;2023-11-19T02:37:27;12.60;99.90
42715;DHT22;28351;51.480;5.706;2023-11-19T02:39:53;12.60;99.90
42715;DHT22;28351;51.480;5.706;2023-11-19T02:42:19;12.70;99.90
42715;DHT22;28351;51.480;5.706;2023-11-19T02:44:45;12.70;99.90
42715;DHT22;28351;51.480;5.706;2023-11-19T02:47:11;12.60;99.90
42715;DHT22;28351;51.480;5.706;2023-11-19T02:49:37;12.60;99.90
42715;DHT22;28351;51.480;5.706;2023-11-19T02:52:13;12.50;99.90
42715;DHT22;28351;51.480;5.706;2023-11-19T02:54:42;12.50;99.90
42715;DHT22;28351;51.480;5.706;2023-11-19T02:57:08;12.40;99.90
42715;DHT22;28351;51.480;5.706;2023-11-19T02:59:39;12.50;99.90
42715;DHT22;28351;51.480;5.706;2023-11-19T03:02:15;12.50;99.90
42715;DHT22;28351;51.480;5.706;2023-11-19T03:04:42;12.50;99.90
42715;DHT22;28351;51.480;5.706;2023-11-19T03:07:09;12.40;99.90
42715;DHT22;28351;51.480;5.706;2023-11-19T03:09:35;12.40;99.90
42715;DHT22;28351;51.480;5.706;2023-11-19T03:12:01;12.30;99.90
42715;DHT22;28351;51.480;5.706;2023-11-19T03:14:27;12.30;99.90
42715;DHT22;28351;51.480;5.706;2023-11-19T03:16:53;12.40;99.90
42715;DHT22;28351;51.480;5.706;2023-11-19T03:19:18;12.30;99.90
42715;DHT22;28351;51.480;5.706;2023-11-19T03:21:44;12.30;99.90
42715;DHT22;28351;51.480;5.706;2023-11-19T03:24:10;12.20;99.90
42715;DHT22;28351;51.480;5.706;2023-11-19T03:26:38;12.20;99.90
42715;DHT22;28351;51.480;5.706;2023-11-19T03:29:03;12.20;99.90
42715;DHT22;28351;51.480;5.706;2023-11-19T03:31:29;12.20;99.90
42715;DHT22;28351;51.480;5.706;2023-11-19T03:33:54;12.20;99.90
42715;DHT22;28351;51.480;5.706;2023-11-19T03:36:20;12.10;99.90
42715;DHT22;28351;51.480;5.706;2023-11-19T03:38:46;12.00;99.90
42715;DHT22;28351;51.480;5.706;2023-11-19T03:41:12;12.10;99.90
42715;DHT22;28351;51.480;5.706;2023-11-19T03:43:39;12.10;99.90
42715;DHT22;28351;51.480;5.706;2023-11-19T03:46:15;12.10;99.90
42715;DHT22;28351;51.480;5.706;2023-11-19T03:51:44;12.10;99.90
42715;DHT22;28351;51.480;5.706;2023-11-19T03:54:10;12.10;99.90
42715;DHT22;28351;51.480;5.706;2023-11-19T03:56:37;12.20;99.90
42715;DHT22;28351;51.480;5.706;2023-11-19T03:59:03;12.20;99.90
42715;DHT22;28351;51.480;5.706;2023-11-19T04:01:28;12.10;99.90
42715;DHT22;28351;51.480;5.706;2023-11-19T04:03:54;12.00;99.90
42715;DHT22;28351;51.480;5.706;2023-11-19T04:06:21;12.00;99.90
42715;DHT22;28351;51.480;5.706;2023-11-19T04:08:48;12.00;99.90
42715;DHT22;28351;51.480;5.706;2023-11-19T04:11:14;12.00;99.90
42715;DHT22;28351;51.480;5.706;2023-11-19T04:13:40;12.00;99.90
42715;DHT22;28351;51.480;5.706;2023-11-19T04:16:06;11.90;99.90
42715;DHT22;28351;51.480;5.706;2023-11-19T04:18:32;11.80;99.90
42715;DHT22;28351;51.480;5.706;2023-11-19T04:20:58;11.80;99.90
42715;DHT22;28351;51.480;5.706;2023-11-19T04:23:24;11.70;99.90
42715;DHT22;28351;51.480;5.706;2023-11-19T04:29:24;11.90;99.90
42715;DHT22;28351;51.480;5.706;2023-11-19T04:31:50;11.90;99.90
42715;DHT22;28351;51.480;5.706;2023-11-19T04:34:16;11.90;99.90
42715;DHT22;28351;51.480;5.706;2023-11-19T04:36:42;12.00;99.90
42715;DHT22;28351;51.480;5.706;2023-11-19T04:39:09;12.10;99.90
42715;DHT22;28351;51.480;5.706;2023-11-19T04:41:48;12.10;99.90
42715;DHT22;28351;51.480;5.706;2023-11-19T04:47:20;12.20;99.90
42715;DHT22;28351;51.480;5.706;2023-11-19T04:58:46;12.20;99.90
42715;DHT22;28351;51.480;5.706;2023-11-19T05:07:21;12.10;99.90
42715;DHT22;28351;51.480;5.706;2023-11-19T05:09:47;11.90;99.90
42715;DHT22;28351;51.480;5.706;2023-11-19T05:12:12;11.80;99.90
42715;DHT22;28351;51.480;5.706;2023-11-19T05:17:25;11.80;99.90
42715;DHT22;28351;51.480;5.706;2023-11-19T05:19:52;11.80;99.90
42715;DHT22;28351;51.480;5.706;2023-11-19T05:22:39;11.80;99.90
42715;DHT22;28351;51.480;5.706;2023-11-19T05:27:56;11.80;99.90
42715;DHT22;28351;51.480;5.706;2023-11-19T05:44:44;11.80;99.90
42715;DHT22;28351;51.480;5.706;2023-11-19T05:52:50;11.80;99.90
42715;DHT22;28351;51.480;5.706;2023-11-19T05:55:15;11.70;99.90
42715;DHT22;28351;51.480;5.706;2023-11-19T06:03:42;11.60;99.90
42715;DHT22;28351;51.480;5.706;2023-11-19T06:15:33;11.80;99.90
42715;DHT22;28351;51.480;5.706;2023-11-19T06:23:34;11.50;99.90
42715;DHT22;28351;51.480;5.706;2023-11-19T06:26:03;11.50;99.90
42715;DHT22;28351;51.480;5.706;2023-11-19T06:50:33;11.30;99.90
42715;DHT22;28351;51.480;5.706;2023-11-19T07:04:12;11.10;99.90
42715;DHT22;28351;51.480;5.706;2023-11-19T07:34:05;11.00;99.90
42715;DHT22;28351;51.480;5.706;2023-11-19T07:36:32;11.10;99.90
42715;DHT22;28351;51.480;5.706;2023-11-19T07:54:03;11.30;99.90
42715;DHT22;28351;51.480;5.706;2023-11-19T07:59:26;11.30;99.90
42715;DHT22;28351;51.480;5.706;2023-11-19T08:04:58;11.20;99.90
42715;DHT22;28351;51.480;5.706;2023-11-19T08:07:23;11.30;99.90
42715;DHT22;28351;51.480;5.706;2023-11-19T08:09:49;11.30;99.90
42715;DHT22;28351;51.480;5.706;2023-11-19T08:15:20;11.30;99.90
42715;DHT22;28351;51.480;5.706;2023-11-19T08:26:02;11.60;99.90
42715;DHT22;28351;51.480;5.706;2023-11-19T08:28:39;11.60;99.90
42715;DHT22;28351;51.480;5.706;2023-11-19T08:31:06;11.70;99.90
42715;DHT22;28351;51.480;5.706;2023-11-19T08:33:32;11.70;99.90
42715;DHT22;28351;51.480;5.706;2023-11-19T08:50:55;11.90;99.90
42715;DHT22;28351;51.480;5.706;2023-11-19T08:56:06;12.10;99.90
42715;DHT22;28351;51.480;5.706;2023-11-19T08:58:32;12.20;99.90
42715;DHT22;28351;51.480;5.706;2023-11-19T09:07:08;12.20;99.90
42715;DHT22;28351;51.480;5.706;2023-11-19T09:09:45;12.20;99.90
42715;DHT22;28351;51.480;5.706;2023-11-19T09:15:37;12.40;99.90
42715;DHT22;28351;51.480;5.706;2023-11-19T09:18:03;12.60;99.90
42715;DHT22;28351;51.480;5.706;2023-11-19T09:20:30;12.70;99.90
42715;DHT22;28351;51.480;5.706;2023-11-19T09:23:03;12.70;99.90
42715;DHT22;28351;51.480;5.706;2023-11-19T09:25:30;12.70;99.90
42715;DHT22;28351;51.480;5.706;2023-11-19T09:27:56;12.60;99.90
42715;DHT22;28351;51.480;5.706;2023-11-19T09:33:06;12.60;99.90
42715;DHT22;28351;51.480;5.706;2023-11-19T09:35:32;12.60;99.90
42715;DHT22;28351;51.480;5.706;2023-11-19T09:43:44;12.90;99.90
42715;DHT22;28351;51.480;5.706;2023-11-19T09:49:14;12.80;99.90
42715;DHT22;28351;51.480;5.706;2023-11-19T09:51:40;12.80;99.90
42715;DHT22;28351;51.480;5.706;2023-11-19T09:54:06;12.80;99.90
42715;DHT22;28351;51.480;5.706;2023-11-19T09:56:33;12.80;99.90
42715;DHT22;28351;51.480;5.706;2023-11-19T09:59:00;12.90;99.90
42715;DHT22;28351;51.480;5.706;2023-11-19T10:01:26;13.00;99.90
42715;DHT22;28351;51.480;5.706;2023-11-19T10:03:55;13.10;99.90
42715;DHT22;28351;51.480;5.706;2023-11-19T10:06:21;13.30;99.90
42715;DHT22;28351;51.480;5.706;2023-11-19T10:08:48;13.40;99.90
42715;DHT22;28351;51.480;5.706;2023-11-19T10:11:22;13.60;99.90
42715;DHT22;28351;51.480;5.706;2023-11-19T10:13:47;13.80;99.90
42715;DHT22;28351;51.480;5.706;2023-11-19T10:16:14;13.80;99.90
42715;DHT22;28351;51.480;5.706;2023-11-19T10:18:49;14.00;99.90
42715;DHT22;28351;51.480;5.706;2023-11-19T10:21:17;14.00;99.90
42715;DHT22;28351;51.480;5.706;2023-11-19T10:23:51;13.90;99.90
42715;DHT22;28351;51.480;5.706;2023-11-19T10:26:18;14.00;99.90
42715;DHT22;28351;51.480;5.706;2023-11-19T10:28:45;13.90;99.90
42715;DHT22;28351;51.480;5.706;2023-11-19T10:31:16;14.00;99.90
42715;DHT22;28351;51.480;5.706;2023-11-19T10:33:42;13.90;99.90
42715;DHT22;28351;51.480;5.706;2023-11-19T10:36:10;13.80;99.90
42715;DHT22;28351;51.480;5.706;2023-11-19T10:38:38;13.90;99.90
42715;DHT22;28351;51.480;5.706;2023-11-19T10:41:04;14.00;99.90
42715;DHT22;28351;51.480;5.706;2023-11-19T10:43:31;14.00;99.90
42715;DHT22;28351;51.480;5.706;2023-11-19T10:46:10;13.90;99.90
42715;DHT22;28351;51.480;5.706;2023-11-19T10:48:36;13.90;99.90
42715;DHT22;28351;51.480;5.706;2023-11-19T10:51:05;13.80;99.90
42715;DHT22;28351;51.480;5.706;2023-11-19T10:53:35;14.00;99.90
42715;DHT22;28351;51.480;5.706;2023-11-19T10:56:02;14.20;99.90
42715;DHT22;28351;51.480;5.706;2023-11-19T10:58:32;14.10;99.90
42715;DHT22;28351;51.480;5.706;2023-11-19T11:00:59;13.90;99.90
42715;DHT22;28351;51.480;5.706;2023-11-19T11:03:35;13.90;99.90
42715;DHT22;28351;51.480;5.706;2023-11-19T11:06:03;14.00;99.90
42715;DHT22;28351;51.480;5.706;2023-11-19T11:08:30;14.30;99.90
42715;DHT22;28351;51.480;5.706;2023-11-19T11:10:56;14.20;99.90
42715;DHT22;28351;51.480;5.706;2023-11-19T11:13:26;14.00;99.90
42715;DHT22;28351;51.480;5.706;2023-11-19T11:15:56;14.00;99.90
42715;DHT22;28351;51.480;5.706;2023-11-19T11:18:26;13.90;99.90
42715;DHT22;28351;51.480;5.706;2023-11-19T11:21:14;13.90;99.90
42715;DHT22;28351;51.480;5.706;2023-11-19T11:26:32;13.90;99.90
42715;DHT22;28351;51.480;5.706;2023-11-19T11:29:27;13.90;99.90
42715;DHT22;28351;51.480;5.706;2023-11-19T11:37:21;13.60;99.90
42715;DHT22;28351;51.480;5.706;2023-11-19T11:39:50;13.50;99.90
42715;DHT22;28351;51.480;5.706;2023-11-19T11:42:31;13.30;99.90
42715;DHT22;28351;51.480;5.706;2023-11-19T11:45:00;13.10;99.90
42715;DHT22;28351;51.480;5.706;2023-11-19T11:48:04;12.90;99.90
42715;DHT22;28351;51.480;5.706;2023-11-19T11:50:30;12.90;99.90
42715;DHT22;28351;51.480;5.706;2023-11-19T11:55:37;12.90;99.90
42715;DHT22;28351;51.480;5.706;2023-11-19T11:58:31;12.70;99.90
42715;DHT22;28351;51.480;5.706;2023-11-19T12:00:58;13.50;99.90
42715;DHT22;28351;51.480;5.706;2023-11-19T12:03:28;14.20;99.90
42715;DHT22;28351;51.480;5.706;2023-11-19T12:05:54;15.70;99.90
42715;DHT22;28351;51.480;5.706;2023-11-19T12:08:24;16.90;99.90
42715;DHT22;28351;51.480;5.706;2023-11-19T12:10:53;17.00;99.90
42715;DHT22;28351;51.480;5.706;2023-11-19T12:13:20;17.20;99.90
42715;DHT22;28351;51.480;5.706;2023-11-19T12:18:31;17.40;99.90
42715;DHT22;28351;51.480;5.706;2023-11-19T12:20:58;17.20;99.90
42715;DHT22;28351;51.480;5.706;2023-11-19T12:23:30;17.30;99.90
42715;DHT22;28351;51.480;5.706;2023-11-19T12:25:57;17.50;99.90
42715;DHT22;28351;51.480;5.706;2023-11-19T12:28:22;17.90;99.90
42715;DHT22;28351;51.480;5.706;2023-11-19T12:30:50;17.30;99.90
42715;DHT22;28351;51.480;5.706;2023-11-19T12:33:16;17.10;99.90
42715;DHT22;28351;51.480;5.706;2023-11-19T12:35:43;16.70;99.90
42715;DHT22;28351;51.480;5.706;2023-11-19T12:38:23;16.70;99.90
42715;DHT22;28351;51.480;5.706;2023-11-19T12:41:05;17.50;99.90
42715;DHT22;28351;51.480;5.706;2023-11-19T12:43:31;17.50;99.90
42715;DHT22;28351;51.480;5.706;2023-11-19T12:45:57;17.70;99.90
42715;DHT22;28351;51.480;5.706;2023-11-19T12:48:22;18.00;99.90
42715;DHT22;28351;51.480;5.706;2023-11-19T12:50:55;17.50;99.90
42715;DHT22;28351;51.480;5.706;2023-11-19T12:53:22;17.00;99.90
42715;DHT22;28351;51.480;5.706;2023-11-19T12:55:49;15.50;99.90
42715;DHT22;28351;51.480;5.706;2023-11-19T12:58:33;15.10;99.90
42715;DHT22;28351;51.480;5.706;2023-11-19T13:01:06;14.50;99.90
42715;DHT22;28351;51.480;5.706;2023-11-19T13:03:34;14.20;99.90
42715;DHT22;28351;51.480;5.706;2023-11-19T13:06:10;14.00;99.90
42715;DHT22;28351;51.480;5.706;2023-11-19T13:11:09;13.80;99.90
42715;DHT22;28351;51.480;5.706;2023-11-19T13:14:03;13.70;99.90
42715;DHT22;28351;51.480;5.706;2023-11-19T13:16:36;13.50;99.90
42715;DHT22;28351;51.480;5.706;2023-11-19T13:19:09;13.40;99.90
42715;DHT22;28351;51.480;5.706;2023-11-19T13:21:35;13.30;99.90
42715;DHT22;28351;51.480;5.706;2023-11-19T13:24:02;13.20;99.90
42715;DHT22;28351;51.480;5.706;2023-11-19T13:29:54;12.70;99.90
42715;DHT22;28351;51.480;5.706;2023-11-19T13:32:19;12.70;99.90
42715;DHT22;28351;51.480;5.706;2023-11-19T13:34:45;12.80;99.90
42715;DHT22;28351;51.480;5.706;2023-11-19T13:37:11;12.90;99.90
42715;DHT22;28351;51.480;5.706;2023-11-19T13:39:41;13.10;99.90
42715;DHT22;28351;51.480;5.706;2023-11-19T13:42:07;14.00;99.90
42715;DHT22;28351;51.480;5.706;2023-11-19T13:44:33;15.30;99.90
42715;DHT22;28351;51.480;5.706;2023-11-19T13:46:59;15.90;99.90
42715;DHT22;28351;51.480;5.706;2023-11-19T13:49:24;15.70;99.90
42715;DHT22;28351;51.480;5.706;2023-11-19T13:51:50;15.40;99.90
42715;DHT22;28351;51.480;5.706;2023-11-19T13:54:15;15.30;99.90
42715;DHT22;28351;51.480;5.706;2023-11-19T13:56:41;15.30;99.90
42715;DHT22;28351;51.480;5.706;2023-11-19T13:59:07;14.10;99.90
42715;DHT22;28351;51.480;5.706;2023-11-19T14:01:34;13.40;99.90
42715;DHT22;28351;51.480;5.706;2023-11-19T14:03:59;13.00;99.90
42715;DHT22;28351;51.480;5.706;2023-11-19T14:06:25;12.90;99.90
42715;DHT22;28351;51.480;5.706;2023-11-19T14:08:50;13.00;99.90
42715;DHT22;28351;51.480;5.706;2023-11-19T14:11:16;12.90;99.90
42715;DHT22;28351;51.480;5.706;2023-11-19T14:13:42;12.90;99.90
42715;DHT22;28351;51.480;5.706;2023-11-19T14:16:08;12.90;99.90
42715;DHT22;28351;51.480;5.706;2023-11-19T14:18:50;12.80;99.90
42715;DHT22;28351;51.480;5.706;2023-11-19T14:21:16;12.70;99.90
42715;DHT22;28351;51.480;5.706;2023-11-19T14:23:41;12.60;99.90
42715;DHT22;28351;51.480;5.706;2023-11-19T14:26:07;12.70;99.90
42715;DHT22;28351;51.480;5.706;2023-11-19T14:28:37;12.60;99.90
42715;DHT22;28351;51.480;5.706;2023-11-19T14:31:05;12.50;99.90
42715;DHT22;28351;51.480;5.706;2023-11-19T14:33:30;12.50;99.90
42715;DHT22;28351;51.480;5.706;2023-11-19T14:35:57;12.60;99.90
42715;DHT22;28351;51.480;5.706;2023-11-19T14:38:25;12.50;99.90
42715;DHT22;28351;51.480;5.706;2023-11-19T14:40:51;12.50;99.90
42715;DHT22;28351;51.480;5.706;2023-11-19T14:43:17;12.40;99.90
42715;DHT22;28351;51.480;5.706;2023-11-19T14:45:45;12.30;99.90
42715;DHT22;28351;51.480;5.706;2023-11-19T14:48:10;12.30;99.90
42715;DHT22;28351;51.480;5.706;2023-11-19T14:50:37;12.30;99.90
42715;DHT22;28351;51.480;5.706;2023-11-19T14:53:21;12.20;99.90
42715;DHT22;28351;51.480;5.706;2023-11-19T14:55:48;12.20;99.90
42715;DHT22;28351;51.480;5.706;2023-11-19T14:58:13;12.20;99.90
42715;DHT22;28351;51.480;5.706;2023-11-19T15:00:39;12.20;99.90
42715;DHT22;28351;51.480;5.706;2023-11-19T15:03:05;12.30;99.90
42715;DHT22;28351;51.480;5.706;2023-11-19T15:05:31;12.20;99.90
42715;DHT22;28351;51.480;5.706;2023-11-19T15:07:57;12.20;99.90
42715;DHT22;28351;51.480;5.706;2023-11-19T15:10:22;12.20;99.90
42715;DHT22;28351;51.480;5.706;2023-11-19T15:12:50;12.00;99.90
42715;DHT22;28351;51.480;5.706;2023-11-19T15:15:15;11.90;99.90
42715;DHT22;28351;51.480;5.706;2023-11-19T15:23:36;11.70;99.90
42715;DHT22;28351;51.480;5.706;2023-11-19T15:26:10;11.60;99.90
42715;DHT22;28351;51.480;5.706;2023-11-19T15:28:36;11.60;99.90
42715;DHT22;28351;51.480;5.706;2023-11-19T15:31:02;11.50;99.90
42715;DHT22;28351;51.480;5.706;2023-11-19T15:33:28;11.50;99.90
42715;DHT22;28351;51.480;5.706;2023-11-19T15:35:55;11.50;99.90
42715;DHT22;28351;51.480;5.706;2023-11-19T15:38:22;11.40;99.90
42715;DHT22;28351;51.480;5.706;2023-11-19T15:40:48;11.40;99.90
42715;DHT22;28351;51.480;5.706;2023-11-19T15:43:14;11.40;99.90
42715;DHT22;28351;51.480;5.706;2023-11-19T15:45:40;11.40;99.90
42715;DHT22;28351;51.480;5.706;2023-11-19T15:48:05;11.40;99.90
42715;DHT22;28351;51.480;5.706;2023-11-19T15:50:31;11.40;99.90
42715;DHT22;28351;51.480;5.706;2023-11-19T15:52:58;11.30;99.90
42715;DHT22;28351;51.480;5.706;2023-11-19T15:55:24;11.30;99.90
42715;DHT22;28351;51.480;5.706;2023-11-19T15:57:51;11.30;99.90
42715;DHT22;28351;51.480;5.706;2023-11-19T16:02:53;11.30;99.90
42715;DHT22;28351;51.480;5.706;2023-11-19T16:05:20;11.30;99.90
42715;DHT22;28351;51.480;5.706;2023-11-19T16:07:46;11.30;99.90
42715;DHT22;28351;51.480;5.706;2023-11-19T16:13:00;11.40;99.90
42715;DHT22;28351;51.480;5.706;2023-11-19T16:15:26;11.40;99.90
42715;DHT22;28351;51.480;5.706;2023-11-19T16:17:51;11.40;99.90
42715;DHT22;28351;51.480;5.706;2023-11-19T16:20:19;11.50;99.90
42715;DHT22;28351;51.480;5.706;2023-11-19T16:22:48;11.50;99.90
42715;DHT22;28351;51.480;5.706;2023-11-19T16:30:39;11.60;99.90
42715;DHT22;28351;51.480;5.706;2023-11-19T16:33:12;11.50;99.90
42715;DHT22;28351;51.480;5.706;2023-11-19T16:35:42;11.40;99.90
42715;DHT22;28351;51.480;5.706;2023-11-19T16:46:50;11.30;99.90
42715;DHT22;28351;51.480;5.706;2023-11-19T16:52:15;11.30;99.90
42715;DHT22;28351;51.480;5.706;2023-11-19T16:54:54;11.30;99.90
42715;DHT22;28351;51.480;5.706;2023-11-19T16:57:25;11.30;99.90
42715;DHT22;28351;51.480;5.706;2023-11-19T17:03:20;11.30;99.90
42715;DHT22;28351;51.480;5.706;2023-11-19T17:05:46;11.30;99.90
42715;DHT22;28351;51.480;5.706;2023-11-19T17:40:22;11.20;99.90
42715;DHT22;28351;51.480;5.706;2023-11-19T17:42:49;11.20;99.90
42715;DHT22;28351;51.480;5.706;2023-11-19T17:56:14;11.20;99.90
42715;DHT22;28351;51.480;5.706;2023-11-19T19:12:09;11.10;99.90
42715;DHT22;28351;51.480;5.706;2023-11-19T20:33:12;11.50;99.90
42715;DHT22;28351;51.480;5.706;2023-11-19T20:35:38;11.50;99.90
42715;DHT22;28351;51.480;5.706;2023-11-19T20:38:05;11.60;99.90
42715;DHT22;28351;51.480;5.706;2023-11-19T20:51:45;11.70;99.90
42715;DHT22;28351;51.480;5.706;2023-11-19T20:54:10;11.70;99.90
42715;DHT22;28351;51.480;5.706;2023-11-19T20:56:36;11.70;99.90
42715;DHT22;28351;51.480;5.706;2023-11-19T21:04:12;11.70;99.90
42715;DHT22;28351;51.480;5.706;2023-11-19T21:06:38;11.70;99.90
42715;DHT22;28351;51.480;5.706;2023-11-19T21:09:07;11.60;99.90
42715;DHT22;28351;51.480;5.706;2023-11-19T21:11:43;11.60;99.90
42715;DHT22;28351;51.480;5.706;2023-11-19T21:14:10;11.60;99.90
42715;DHT22;28351;51.480;5.706;2023-11-19T21:16:37;11.60;99.90
42715;DHT22;28351;51.480;5.706;2023-11-19T21:22:10;11.70;99.90
42715;DHT22;28351;51.480;5.706;2023-11-19T21:27:28;11.60;99.90
42715;DHT22;28351;51.480;5.706;2023-11-19T21:32:36;11.60;99.90
42715;DHT22;28351;51.480;5.706;2023-11-19T22:24:19;11.40;99.90
